createdAt,value
2022-12-29T00:01:45.021Z,3.25
2022-12-29T00:04:48.174Z,5.63
2022-12-29T00:07:53.139Z,3.40
2022-12-29T00:10:56.615Z,4.10
2022-12-29T00:14:21.438Z,4.40
2022-12-29T00:17:27.386Z,2.90
2022-12-29T00:20:47.906Z,4.35
2022-12-29T00:24:24.563Z,3.03
2022-12-29T00:27:46.470Z,5.68
2022-12-29T00:31:07.080Z,3.35
2022-12-29T00:34:30.859Z,6.30
2022-12-29T00:37:47.876Z,5.07
2022-12-29T00:41:10.117Z,4.88
2022-12-29T00:44:15.439Z,4.90
2022-12-29T00:47:18.534Z,2.95
2022-12-29T00:50:20.659Z,4.22
2022-12-29T00:53:23.773Z,4.38
2022-12-29T00:56:28.199Z,3.88
2022-12-29T00:59:31.244Z,5.07
2022-12-29T01:02:34.218Z,4.80
2022-12-29T01:05:38.541Z,4.88
2022-12-29T01:08:41.760Z,3.53
2022-12-29T01:11:45.341Z,6.13
2022-12-29T01:14:48.321Z,3.70
2022-12-29T01:17:51.304Z,6.45
2022-12-29T01:21:01.424Z,4.85
2022-12-29T01:24:04.941Z,4.10
2022-12-29T01:27:09.262Z,5.35
2022-12-29T01:30:13.461Z,4.50
2022-12-29T01:33:17.582Z,6.10
2022-12-29T01:36:22.382Z,4.38
2022-12-29T01:39:25.547Z,6.30
2022-12-29T01:42:30.028Z,5.35
2022-12-29T01:45:32.937Z,5.45
2022-12-29T01:48:37.249Z,3.22
2022-12-29T01:51:44.177Z,8.13
2022-12-29T01:54:56.072Z,6.03
2022-12-29T01:58:06.536Z,5.85
2022-12-29T02:01:10.237Z,7.28
2022-12-29T02:04:14.797Z,6.97
2022-12-29T02:07:21.771Z,7.45
2022-12-29T02:10:29.649Z,4.32
2022-12-29T02:13:34.486Z,7.60
2022-12-29T02:16:59.609Z,4.90
2022-12-29T02:20:57.801Z,4.03
2022-12-29T02:24:44.194Z,3.80
2022-12-29T02:28:26.995Z,3.08
2022-12-29T02:31:39.610Z,4.57
2022-12-29T02:34:56.241Z,4.20
2022-12-29T02:38:14.916Z,2.97
2022-12-29T02:41:25.645Z,3.55
2022-12-29T02:44:44.163Z,3.45
2022-12-29T02:47:56.773Z,3.70
2022-12-29T02:51:05.157Z,3.53
2022-12-29T02:54:26.261Z,4.07
2022-12-29T02:57:36.251Z,2.45
2022-12-29T03:00:50.452Z,2.45
2022-12-29T03:04:17.178Z,3.78
2022-12-29T03:07:32.887Z,5.18
2022-12-29T03:10:50.981Z,3.13
2022-12-29T03:14:16.607Z,4.85
2022-12-29T03:17:29.939Z,5.00
2022-12-29T03:20:44.948Z,3.28
2022-12-29T03:23:51.382Z,4.30
2022-12-29T03:26:58.362Z,4.43
2022-12-29T03:30:05.756Z,4.25
2022-12-29T03:33:14.143Z,4.95
2022-12-29T03:36:29.174Z,7.38
2022-12-29T03:39:32.816Z,7.05
2022-12-29T03:42:38.805Z,9.63
2022-12-29T03:45:41.893Z,6.07
2022-12-29T03:48:44.868Z,4.90
2022-12-29T03:51:51.820Z,4.80
2022-12-29T03:54:55.153Z,4.85
2022-12-29T03:57:59.340Z,5.47
2022-12-29T04:04:06.067Z,5.20
2022-12-29T04:07:10.541Z,7.57
2022-12-29T04:10:13.496Z,4.10
2022-12-29T04:13:16.880Z,7.07
2022-12-29T04:16:21.809Z,6.50
2022-12-29T04:19:24.912Z,5.90
2022-12-29T04:22:29.443Z,6.70
2022-12-29T04:25:33.955Z,4.90
2022-12-29T04:28:38.669Z,6.47
2022-12-29T04:31:41.961Z,4.47
2022-12-29T04:34:45.169Z,4.23
2022-12-29T04:37:49.582Z,6.22
2022-12-29T04:40:53.399Z,6.45
2022-12-29T04:43:56.817Z,5.32
2022-12-29T04:46:59.874Z,4.83
2022-12-29T04:50:02.973Z,5.50
2022-12-29T04:53:07.658Z,7.20
2022-12-29T04:56:11.189Z,5.43
2022-12-29T04:59:14.161Z,5.60
2022-12-29T05:02:17.856Z,7.67
2022-12-29T05:05:21.905Z,7.25
2022-12-29T05:08:28.510Z,4.95
2022-12-29T05:11:31.715Z,5.32
2022-12-29T05:14:35.271Z,6.15
2022-12-29T05:17:38.888Z,5.57
2022-12-29T05:20:42.025Z,4.28
2022-12-29T05:23:46.469Z,6.97
2022-12-29T05:26:49.544Z,3.67
2022-12-29T05:29:52.532Z,4.68
2022-12-29T05:32:55.568Z,6.30
2022-12-29T05:35:58.625Z,7.22
2022-12-29T05:39:02.961Z,6.38
2022-12-29T05:42:06.154Z,6.78
2022-12-29T05:45:11.136Z,6.13
2022-12-29T05:48:14.151Z,4.38
2022-12-29T05:51:17.067Z,4.88
2022-12-29T05:57:25.839Z,3.78
2022-12-29T06:00:28.817Z,5.63
2022-12-29T06:03:32.011Z,5.47
2022-12-29T06:06:35.386Z,6.00
2022-12-29T06:09:41.085Z,6.00
2022-12-29T06:12:44.198Z,5.97
2022-12-29T06:15:47.271Z,6.55
2022-12-29T06:18:50.272Z,3.92
2022-12-29T06:21:54.018Z,5.13
2022-12-29T06:25:03.172Z,7.70
2022-12-29T06:28:08.319Z,6.10
2022-12-29T06:31:12.267Z,7.37
2022-12-29T06:34:15.712Z,6.05
2022-12-29T06:37:18.767Z,5.87
2022-12-29T06:40:24.064Z,5.22
2022-12-29T06:43:27.149Z,7.35
2022-12-29T06:46:30.264Z,4.18
2022-12-29T06:49:33.241Z,6.60
2022-12-29T06:52:37.115Z,6.00
2022-12-29T06:55:43.225Z,4.38
2022-12-29T06:58:46.234Z,4.95
2022-12-29T07:01:49.524Z,9.27
2022-12-29T07:04:53.101Z,5.47
2022-12-29T07:07:56.678Z,6.45
2022-12-29T07:11:01.456Z,6.05
2022-12-29T07:14:05.763Z,6.90
2022-12-29T07:17:08.979Z,6.70
2022-12-29T07:20:12.853Z,7.47
2022-12-29T07:23:16.096Z,5.18
2022-12-29T07:26:20.481Z,4.07
2022-12-29T07:29:24.292Z,4.22
2022-12-29T07:32:27.440Z,6.45
2022-12-29T07:35:30.534Z,4.82
2022-12-29T07:38:33.632Z,7.53
2022-12-29T07:41:38.055Z,3.78
2022-12-29T07:44:41.102Z,3.47
2022-12-29T07:47:44.135Z,7.75
2022-12-29T07:50:47.255Z,5.60
2022-12-29T07:53:50.366Z,8.30
2022-12-29T07:56:55.020Z,3.35
2022-12-29T07:59:58.045Z,1.80
2022-12-29T08:03:01.109Z,2.92
2022-12-29T08:06:04.460Z,3.42
2022-12-29T08:09:16.396Z,4.53
2022-12-29T08:12:24.180Z,2.78
2022-12-29T08:15:32.374Z,3.00
2022-12-29T08:18:35.911Z,2.90
2022-12-29T08:21:38.978Z,2.45
2022-12-29T08:24:42.595Z,3.60
2022-12-29T08:27:47.189Z,3.45
2022-12-29T08:30:50.247Z,2.53
2022-12-29T08:33:53.773Z,3.70
2022-12-29T08:36:56.921Z,4.70
2022-12-29T08:40:04.459Z,5.28
2022-12-29T08:43:09.205Z,2.53
2022-12-29T08:46:12.275Z,1.70
2022-12-29T08:49:15.933Z,2.65
2022-12-29T08:52:19.209Z,2.77
2022-12-29T08:55:22.226Z,2.30
2022-12-29T08:58:27.404Z,4.57
2022-12-29T09:01:31.416Z,2.88
2022-12-29T09:07:37.815Z,2.03
2022-12-29T09:10:40.802Z,4.45
2022-12-29T09:13:45.345Z,2.58
2022-12-29T09:17:06.266Z,3.95
2022-12-29T09:20:10.686Z,2.47
2022-12-29T09:23:13.725Z,2.45
2022-12-29T09:26:16.756Z,3.72
2022-12-29T09:29:21.175Z,4.22
2022-12-29T09:32:27.500Z,5.78
2022-12-29T09:35:32.885Z,4.13
2022-12-29T09:38:35.873Z,5.72
2022-12-29T09:41:45.249Z,3.28
2022-12-29T09:45:05.316Z,5.03
2022-12-29T09:48:19.814Z,5.43
2022-12-29T09:51:27.402Z,6.57
2022-12-29T09:54:44.784Z,2.88
2022-12-29T09:57:58.619Z,4.18
2022-12-29T10:01:07.166Z,2.33
2022-12-29T10:04:10.537Z,3.78
2022-12-29T10:07:30.819Z,2.87
2022-12-29T10:10:42.408Z,3.42
2022-12-29T10:14:13.877Z,5.70
2022-12-29T10:17:36.975Z,3.63
2022-12-29T10:20:54.611Z,6.60
2022-12-29T10:24:00.962Z,3.88
2022-12-29T10:27:05.669Z,3.03
2022-12-29T10:30:16.097Z,2.50
2022-12-29T10:33:26.398Z,5.03
2022-12-29T10:36:37.901Z,5.45
2022-12-29T10:39:51.320Z,9.13
2022-12-29T10:42:57.307Z,7.13
2022-12-29T10:46:06.647Z,4.15
2022-12-29T10:49:21.937Z,6.15
2022-12-29T10:52:30.069Z,5.93
2022-12-29T10:55:37.879Z,4.95
2022-12-29T10:58:49.317Z,8.40
2022-12-29T11:02:21.927Z,3.42
2022-12-29T11:05:35.801Z,5.82
2022-12-29T11:08:47.056Z,6.07
2022-12-29T11:11:50.107Z,7.15
2022-12-29T11:15:15.508Z,9.77
2022-12-29T11:18:25.525Z,6.90
2022-12-29T11:21:41.209Z,9.32
2022-12-29T11:24:49.052Z,7.30
2022-12-29T11:28:00.489Z,6.35
2022-12-29T11:31:05.970Z,4.22
2022-12-29T11:34:09.546Z,6.93
2022-12-29T11:37:17.411Z,6.13
2022-12-29T11:40:22.913Z,9.60
2022-12-29T11:43:34.387Z,15.27
2022-12-29T11:46:40.287Z,7.68
2022-12-29T11:49:43.493Z,8.73
2022-12-29T11:52:51.267Z,10.83
2022-12-29T11:55:58.575Z,6.00
2022-12-29T11:59:45.845Z,8.80
2022-12-29T12:02:58.219Z,4.70
2022-12-29T12:06:04.238Z,11.18
2022-12-29T12:09:18.504Z,9.57
2022-12-29T12:12:29.799Z,7.82
2022-12-29T12:15:45.382Z,8.80
2022-12-29T12:18:54.655Z,7.20
2022-12-29T12:22:06.158Z,5.97
2022-12-29T12:25:22.267Z,7.55
2022-12-29T12:28:39.411Z,6.72
2022-12-29T12:31:52.471Z,5.47
2022-12-29T12:34:55.550Z,8.98
2022-12-29T12:38:17.841Z,7.45
2022-12-29T12:41:39.783Z,7.18
2022-12-29T12:44:59.564Z,10.90
2022-12-29T12:48:23.553Z,7.15
2022-12-29T12:51:38.767Z,7.18
2022-12-29T12:55:05.543Z,7.03
2022-12-29T12:58:25.958Z,7.15
2022-12-29T13:01:48.618Z,6.97
2022-12-29T13:05:24.272Z,7.10
2022-12-29T13:09:07.710Z,12.57
2022-12-29T13:12:30.023Z,6.90
2022-12-29T13:15:50.945Z,4.60
2022-12-29T13:19:04.264Z,8.20
2022-12-29T13:22:18.331Z,7.82
2022-12-29T13:25:34.980Z,7.65
2022-12-29T13:28:55.283Z,6.95
2022-12-29T13:32:24.047Z,8.27
2022-12-29T13:35:58.255Z,8.57
2022-12-29T13:39:16.165Z,11.30
2022-12-29T13:42:26.241Z,7.90
2022-12-29T13:45:34.636Z,10.95
2022-12-29T13:48:48.308Z,6.90
2022-12-29T13:51:55.066Z,9.52
2022-12-29T13:55:09.205Z,11.07
2022-12-29T13:58:28.643Z,7.35
2022-12-29T14:01:38.220Z,6.43
2022-12-29T14:05:00.182Z,7.85
2022-12-29T14:08:06.776Z,7.63
2022-12-29T14:11:12.715Z,9.48
2022-12-29T14:14:24.311Z,8.13
2022-12-29T14:17:27.364Z,6.40
2022-12-29T14:20:32.234Z,9.23
2022-12-29T14:23:42.557Z,8.98
2022-12-29T14:26:45.521Z,5.30
2022-12-29T14:29:51.127Z,9.23
2022-12-29T14:33:06.061Z,5.97
2022-12-29T14:36:36.404Z,14.07
2022-12-29T14:39:42.115Z,6.38
2022-12-29T14:42:46.751Z,5.43
2022-12-29T14:46:01.183Z,5.45
2022-12-29T14:52:19.425Z,12.73
2022-12-29T14:55:40.670Z,4.43
2022-12-29T14:58:51.907Z,4.82
2022-12-29T15:01:58.966Z,6.30
2022-12-29T15:05:04.674Z,4.50
2022-12-29T15:08:10.752Z,8.77
2022-12-29T15:11:19.352Z,6.00
2022-12-29T15:14:38.630Z,6.15
2022-12-29T15:17:41.568Z,6.32
2022-12-29T15:20:45.107Z,6.57
2022-12-29T15:23:50.360Z,6.03
2022-12-29T15:26:56.006Z,5.15
2022-12-29T15:30:02.668Z,6.82
2022-12-29T15:33:21.362Z,5.93
2022-12-29T15:36:27.683Z,7.75
2022-12-29T15:39:33.462Z,6.43
2022-12-29T15:43:02.584Z,13.35
2022-12-29T15:46:06.321Z,7.53
2022-12-29T15:49:15.178Z,5.72
2022-12-29T15:52:21.966Z,4.78
2022-12-29T15:55:34.021Z,6.40
2022-12-29T15:58:45.452Z,9.43
2022-12-29T16:01:48.709Z,10.50
2022-12-29T16:05:16.594Z,5.73
2022-12-29T16:08:34.665Z,8.57
2022-12-29T16:11:42.679Z,4.38
2022-12-29T16:14:49.487Z,5.85
2022-12-29T16:17:56.677Z,8.10
2022-12-29T16:20:59.877Z,5.90
2022-12-29T16:24:08.845Z,8.38
2022-12-29T16:27:24.109Z,9.18
2022-12-29T16:30:33.831Z,11.60
2022-12-29T16:33:47.671Z,14.18
2022-12-29T16:37:02.217Z,10.05
2022-12-29T16:40:32.244Z,10.50
2022-12-29T16:43:42.693Z,11.13
2022-12-29T16:47:00.511Z,14.02
2022-12-29T16:50:28.242Z,12.48
2022-12-29T16:53:38.568Z,12.65
2022-12-29T16:56:46.828Z,12.70
2022-12-29T16:59:56.190Z,12.18
2022-12-29T17:03:02.775Z,9.35
2022-12-29T17:06:07.215Z,12.73
2022-12-29T17:09:22.391Z,17.38
2022-12-29T17:12:30.290Z,12.90
2022-12-29T17:15:35.653Z,13.63
2022-12-29T17:18:39.247Z,12.90
2022-12-29T17:21:42.223Z,18.50
2022-12-29T17:24:45.429Z,13.68
2022-12-29T17:27:54.124Z,15.73
2022-12-29T17:31:04.377Z,15.25
2022-12-29T17:34:09.515Z,17.85
2022-12-29T17:37:33.684Z,13.73
2022-12-29T17:40:37.902Z,20.65
2022-12-29T17:46:45.808Z,12.10
2022-12-29T17:49:48.859Z,18.73
2022-12-29T17:53:00.709Z,12.02
2022-12-29T17:56:04.568Z,15.40
2022-12-29T17:59:14.738Z,16.15
2022-12-29T18:02:32.301Z,15.70
2022-12-29T18:05:35.523Z,18.85
2022-12-29T18:08:40.697Z,18.23
2022-12-29T18:11:46.178Z,12.05
2022-12-29T18:14:49.394Z,26.05
2022-12-29T18:18:01.576Z,16.23
2022-12-29T18:21:04.731Z,19.48
2022-12-29T18:24:12.634Z,19.83
2022-12-29T18:27:19.360Z,18.88
2022-12-29T18:30:22.397Z,14.98
2022-12-29T18:33:27.596Z,16.30
2022-12-29T18:36:31.866Z,17.55
2022-12-29T18:39:34.913Z,18.77
2022-12-29T18:42:37.901Z,22.05
2022-12-29T18:45:40.855Z,11.95
2022-12-29T18:48:45.573Z,15.00
2022-12-29T18:51:48.557Z,15.48
2022-12-29T18:54:51.567Z,14.23
2022-12-29T18:57:56.098Z,16.98
2022-12-29T19:00:59.696Z,18.42
2022-12-29T19:04:05.372Z,21.95
2022-12-29T19:07:08.247Z,14.52
2022-12-29T19:10:11.242Z,22.10
2022-12-29T19:13:18.887Z,24.10
2022-12-29T19:16:24.932Z,18.17
2022-12-29T19:19:29.375Z,22.40
2022-12-29T19:22:32.482Z,13.82
2022-12-29T19:25:36.028Z,18.20
2022-12-29T19:28:38.962Z,18.30
2022-12-29T19:31:42.087Z,14.40
2022-12-29T19:34:48.775Z,15.17
2022-12-29T19:37:52.826Z,13.95
2022-12-29T19:40:56.482Z,13.50
2022-12-29T19:43:59.682Z,16.05
2022-12-29T19:47:02.730Z,14.73
2022-12-29T19:50:09.930Z,12.18
2022-12-29T19:53:13.457Z,10.52
2022-12-29T19:56:17.292Z,18.38
2022-12-29T19:59:20.276Z,25.95
2022-12-29T20:02:26.037Z,20.90
2022-12-29T20:05:30.496Z,14.18
2022-12-29T20:08:33.557Z,20.15
2022-12-29T20:11:37.000Z,15.30
2022-12-29T20:14:40.716Z,14.25
2022-12-29T20:18:12.631Z,12.95
2022-12-29T20:21:10.682Z,17.83
2022-12-29T20:24:13.684Z,14.93
2022-12-29T20:27:16.779Z,13.70
2022-12-29T20:30:19.728Z,14.48
2022-12-29T20:33:22.763Z,13.18
2022-12-29T20:36:30.334Z,14.48
2022-12-29T20:39:33.573Z,18.40
2022-12-29T20:42:36.669Z,16.07
2022-12-29T20:45:40.117Z,16.08
2022-12-29T20:48:44.003Z,17.85
2022-12-29T20:52:05.818Z,14.68
2022-12-29T20:55:09.980Z,8.68
2022-12-29T20:58:23.434Z,12.15
2022-12-29T21:01:27.501Z,10.05
2022-12-29T21:04:56.952Z,8.68
2022-12-29T21:07:59.424Z,10.00
2022-12-29T21:11:03.385Z,10.93
2022-12-29T21:14:06.507Z,14.10
2022-12-29T21:17:09.623Z,11.00
2022-12-29T21:20:20.057Z,16.38
2022-12-29T21:23:24.906Z,10.55
2022-12-29T21:26:27.975Z,9.98
2022-12-29T21:29:30.967Z,9.98
2022-12-29T21:32:34.049Z,12.43
2022-12-29T21:35:38.389Z,12.18
2022-12-29T21:38:43.428Z,8.45
2022-12-29T21:41:47.464Z,7.50
2022-12-29T21:45:08.344Z,6.93
2022-12-29T21:48:24.916Z,12.90
2022-12-29T21:51:47.004Z,9.43
2022-12-29T21:55:04.825Z,9.45
2022-12-29T21:58:41.277Z,9.95
2022-12-29T22:02:02.650Z,11.35
2022-12-29T22:05:25.763Z,10.88
2022-12-29T22:08:46.506Z,9.10
2022-12-29T22:12:08.719Z,7.70
2022-12-29T22:15:12.059Z,11.18
2022-12-29T22:18:15.087Z,13.17
2022-12-29T22:21:19.337Z,8.20
2022-12-29T22:24:22.329Z,9.80
2022-12-29T22:27:27.147Z,12.98
2022-12-29T22:30:30.169Z,13.65
2022-12-29T22:33:33.323Z,8.18
2022-12-29T22:36:36.305Z,14.48
2022-12-29T22:39:39.256Z,9.70
2022-12-29T22:42:43.607Z,7.45
2022-12-29T22:45:46.685Z,8.88
2022-12-29T22:48:49.677Z,8.93
2022-12-29T22:51:52.789Z,9.75
2022-12-29T22:54:56.204Z,11.05
2022-12-29T22:58:03.849Z,8.68
2022-12-29T23:01:06.872Z,7.90
2022-12-29T23:04:57.251Z,9.10
2022-12-29T23:07:34.165Z,13.15
2022-12-29T23:10:37.189Z,10.52
2022-12-29T23:13:44.579Z,11.88
2022-12-29T23:16:47.838Z,10.40
2022-12-29T23:19:52.056Z,7.03
2022-12-29T23:25:57.881Z,8.80
2022-12-29T23:29:05.947Z,8.18
2022-12-29T23:32:09.156Z,12.90
2022-12-29T23:35:12.284Z,6.82
2022-12-29T23:38:15.339Z,9.60
2022-12-29T23:41:18.284Z,8.45
2022-12-29T23:44:22.554Z,11.13
2022-12-29T23:47:25.748Z,8.68
2022-12-29T23:50:28.834Z,16.48
2022-12-29T23:53:31.854Z,11.43
2022-12-29T23:56:35.036Z,11.63
2022-12-29T23:59:39.313Z,7.93
